sensor_id;sensor_type;location;lat;lon;timestamp;pressure;altitude;pressure_sealevel;temperature;humidity
57574;BME280;63722;48.858;21.906;2022-11-20T00:00:51;98307.06;;;20.03;46.70
57574;BME280;63722;48.858;21.906;2022-11-20T00:03:17;98306.28;;;20.02;46.58
57574;BME280;63722;48.858;21.906;2022-11-20T00:05:43;98312.88;;;20.00;46.68
57574;BME280;63722;48.858;21.906;2022-11-20T00:08:08;98319.03;;;20.00;46.61
57574;BME280;63722;48.858;21.906;2022-11-20T00:10:37;98313.97;;;19.99;46.88
57574;BME280;63722;48.858;21.906;2022-11-20T00:13:03;98315.78;;;19.98;46.60
57574;BME280;63722;48.858;21.906;2022-11-20T00:15:30;98313.13;;;19.98;46.53
57574;BME280;63722;48.858;21.906;2022-11-20T00:17:55;98308.38;;;20.00;46.58
57574;BME280;63722;48.858;21.906;2022-11-20T00:20:21;98304.66;;;20.01;46.64
57574;BME280;63722;48.858;21.906;2022-11-20T00:22:46;98293.22;;;20.01;46.67
57574;BME280;63722;48.858;21.906;2022-11-20T00:25:11;98291.59;;;20.00;46.73
57574;BME280;63722;48.858;21.906;2022-11-20T00:27:37;98294.00;;;20.01;46.73
57574;BME280;63722;48.858;21.906;2022-11-20T00:30:04;98302.50;;;19.98;46.61
57574;BME280;63722;48.858;21.906;2022-11-20T00:32:29;98312.34;;;19.98;46.58
57574;BME280;63722;48.858;21.906;2022-11-20T00:34:55;98312.34;;;19.98;46.61
57574;BME280;63722;48.858;21.906;2022-11-20T00:37:20;98308.31;;;19.95;46.63
57574;BME280;63722;48.858;21.906;2022-11-20T00:39:46;98311.31;;;19.99;46.75
57574;BME280;63722;48.858;21.906;2022-11-20T00:42:11;98303.06;;;20.00;46.61
57574;BME280;63722;48.858;21.906;2022-11-20T00:44:36;98311.31;;;19.99;46.63
57574;BME280;63722;48.858;21.906;2022-11-20T00:47:02;98316.63;;;19.99;47.04
57574;BME280;63722;48.858;21.906;2022-11-20T00:49:27;98311.59;;;20.02;46.49
57574;BME280;63722;48.858;21.906;2022-11-20T00:51:52;98309.38;;;19.94;46.75
57574;BME280;63722;48.858;21.906;2022-11-20T00:54:18;98312.88;;;20.00;46.71
57574;BME280;63722;48.858;21.906;2022-11-20T00:56:43;98301.69;;;19.98;46.35
57574;BME280;63722;48.858;21.906;2022-11-20T00:59:09;98309.69;;;19.98;46.46
57574;BME280;63722;48.858;21.906;2022-11-20T01:01:35;98311.31;;;19.99;46.71
57574;BME280;63722;48.858;21.906;2022-11-20T01:04:01;98301.69;;;19.98;46.70
57574;BME280;63722;48.858;21.906;2022-11-20T01:06:27;98295.34;;;19.99;46.53
57574;BME280;63722;48.858;21.906;2022-11-20T01:08:55;98291.06;;;19.98;46.61
57574;BME280;63722;48.858;21.906;2022-11-20T01:11:30;98302.50;;;19.98;46.65
57574;BME280;63722;48.858;21.906;2022-11-20T01:13:57;98309.69;;;19.98;46.58
57574;BME280;63722;48.858;21.906;2022-11-20T01:16:24;98312.09;;;19.99;46.41
57574;BME280;63722;48.858;21.906;2022-11-20T01:18:52;98309.69;;;19.98;46.22
57574;BME280;63722;48.858;21.906;2022-11-20T01:21:20;98305.97;;;19.99;46.61
57574;BME280;63722;48.858;21.906;2022-11-20T01:23:47;98312.09;;;19.99;46.64
57574;BME280;63722;48.858;21.906;2022-11-20T01:26:15;98303.56;;;19.97;46.66
57574;BME280;63722;48.858;21.906;2022-11-20T01:28:42;98299.03;;;19.98;46.60
57574;BME280;63722;48.858;21.906;2022-11-20T01:31:15;98307.81;;;19.98;46.47
57574;BME280;63722;48.858;21.906;2022-11-20T01:33:42;98313.97;;;19.99;46.53
57574;BME280;63722;48.858;21.906;2022-11-20T01:36:09;98304.84;;;19.95;46.57
57574;BME280;63722;48.858;21.906;2022-11-20T01:38:35;98308.06;;;19.97;46.68
57574;BME280;63722;48.858;21.906;2022-11-20T01:41:00;98306.22;;;19.97;46.52
57574;BME280;63722;48.858;21.906;2022-11-20T01:43:26;98304.34;;;19.98;46.60
57574;BME280;63722;48.858;21.906;2022-11-20T01:46:02;98305.66;;;19.95;46.51
57574;BME280;63722;48.858;21.906;2022-11-20T01:48:38;98306.47;;;19.96;46.57
57574;BME280;63722;48.858;21.906;2022-11-20T01:51:06;98302.75;;;19.97;46.47
57574;BME280;63722;48.858;21.906;2022-11-20T01:53:36;98293.97;;;19.96;46.50
57574;BME280;63722;48.858;21.906;2022-11-20T01:56:05;98292.09;;;19.97;46.45
57574;BME280;63722;48.858;21.906;2022-11-20T01:58:35;98303.56;;;19.97;47.04
57574;BME280;63722;48.858;21.906;2022-11-20T02:01:04;98297.66;;;19.95;46.35
57574;BME280;63722;48.858;21.906;2022-11-20T02:03:30;98294.22;;;19.95;46.89
57574;BME280;63722;48.858;21.906;2022-11-20T02:08:21;98292.34;;;19.95;46.60
57574;BME280;63722;48.858;21.906;2022-11-20T02:10:48;98281.94;;;19.94;46.65
57574;BME280;63722;48.858;21.906;2022-11-20T02:13:13;98281.44;;;19.97;46.35
57574;BME280;63722;48.858;21.906;2022-11-20T02:15:58;98287.09;;;20.00;46.48
57574;BME280;63722;48.858;21.906;2022-11-20T02:18:23;98272.91;;;19.95;46.51
57574;BME280;63722;48.858;21.906;2022-11-20T02:20:54;98270.25;;;19.95;46.68
57574;BME280;63722;48.858;21.906;2022-11-20T02:23:38;98263.31;;;19.94;46.59
57574;BME280;63722;48.858;21.906;2022-11-20T02:26:08;98258.25;;;19.92;46.59
57574;BME280;63722;48.858;21.906;2022-11-20T02:28:35;98258.81;;;19.94;46.57
57574;BME280;63722;48.858;21.906;2022-11-20T02:31:00;98254.53;;;19.93;46.67
57574;BME280;63722;48.858;21.906;2022-11-20T02:33:26;98254.28;;;19.95;46.44
57574;BME280;63722;48.858;21.906;2022-11-20T02:35:51;98255.34;;;19.94;46.57
57574;BME280;63722;48.858;21.906;2022-11-20T02:38:17;98249.75;;;19.95;46.43
57574;BME280;63722;48.858;21.906;2022-11-20T02:40:43;98262.31;;;20.00;46.21
57574;BME280;63722;48.858;21.906;2022-11-20T02:43:08;98262.22;;;19.90;46.47
57574;BME280;63722;48.858;21.906;2022-11-20T02:45:34;98257.44;;;19.92;46.30
57574;BME280;63722;48.858;21.906;2022-11-20T02:48:00;98259.88;;;19.93;46.46
57574;BME280;63722;48.858;21.906;2022-11-20T02:50:25;98255.84;;;19.91;46.44
57574;BME280;63722;48.858;21.906;2022-11-20T02:52:51;98254.00;;;19.91;46.43
57574;BME280;63722;48.858;21.906;2022-11-20T02:55:16;98235.66;;;19.95;46.47
57574;BME280;63722;48.858;21.906;2022-11-20T02:57:41;98237.53;;;19.94;46.54
57574;BME280;63722;48.858;21.906;2022-11-20T03:00:07;98228.44;;;19.90;46.53
57574;BME280;63722;48.858;21.906;2022-11-20T03:02:33;98236.72;;;19.94;46.56
57574;BME280;63722;48.858;21.906;2022-11-20T03:04:59;98242.59;;;19.96;46.30
57574;BME280;63722;48.858;21.906;2022-11-20T03:07:24;98235.66;;;19.95;46.35
57574;BME280;63722;48.858;21.906;2022-11-20T03:09:49;98232.47;;;19.93;46.30
57574;BME280;63722;48.858;21.906;2022-11-20T03:12:15;98239.38;;;19.94;46.37
57574;BME280;63722;48.858;21.906;2022-11-20T03:14:40;98226.63;;;19.96;46.34
57574;BME280;63722;48.858;21.906;2022-11-20T03:17:06;98227.69;;;19.95;46.40
57574;BME280;63722;48.858;21.906;2022-11-20T03:19:31;98239.38;;;19.94;46.36
57574;BME280;63722;48.858;21.906;2022-11-20T03:21:57;98225.03;;;19.95;46.34
57574;BME280;63722;48.858;21.906;2022-11-20T03:24:22;98227.94;;;19.93;46.36
57574;BME280;63722;48.858;21.906;2022-11-20T03:26:47;98228.72;;;19.94;46.31
57574;BME280;63722;48.858;21.906;2022-11-20T03:29:13;98219.06;;;19.88;46.20
57574;BME280;63722;48.858;21.906;2022-11-20T03:31:40;98220.75;;;19.94;46.39
57574;BME280;63722;48.858;21.906;2022-11-20T03:34:07;98215.38;;;19.89;46.46
57574;BME280;63722;48.858;21.906;2022-11-20T03:36:33;98222.59;;;19.93;46.35
57574;BME280;63722;48.858;21.906;2022-11-20T03:38:59;98213.75;;;19.88;46.18
57574;BME280;63722;48.858;21.906;2022-11-20T03:41:45;98201.53;;;19.87;46.39
57574;BME280;63722;48.858;21.906;2022-11-20T03:44:11;98210.09;;;19.94;46.24
57574;BME280;63722;48.858;21.906;2022-11-20T03:46:38;98202.06;;;19.89;46.52
57574;BME280;63722;48.858;21.906;2022-11-20T03:49:04;98199.41;;;19.89;46.40
57574;BME280;63722;48.858;21.906;2022-11-20T03:51:31;98205.28;;;19.91;46.44
57574;BME280;63722;48.858;21.906;2022-11-20T03:53:59;98204.53;;;19.95;46.38
57574;BME280;63722;48.858;21.906;2022-11-20T03:56:28;98210.34;;;19.92;46.37
57574;BME280;63722;48.858;21.906;2022-11-20T03:58:54;98219.94;;;19.93;46.13
57574;BME280;63722;48.858;21.906;2022-11-20T04:01:25;98218.66;;;19.96;46.28
57574;BME280;63722;48.858;21.906;2022-11-20T04:03:53;98223.41;;;19.94;46.30
57574;BME280;63722;48.858;21.906;2022-11-20T04:06:21;98223.34;;;19.89;46.31
57574;BME280;63722;48.858;21.906;2022-11-20T04:08:47;98231.88;;;19.91;46.19
57574;BME280;63722;48.858;21.906;2022-11-20T04:11:20;98228.19;;;19.92;46.29
57574;BME280;63722;48.858;21.906;2022-11-20T04:13:48;98221.25;;;19.91;46.26
57574;BME280;63722;48.858;21.906;2022-11-20T04:16:14;98213.25;;;19.91;46.40
57574;BME280;63722;48.858;21.906;2022-11-20T04:18:39;98220.19;;;19.92;45.92
57574;BME280;63722;48.858;21.906;2022-11-20T04:21:06;98226.31;;;19.92;46.39
57574;BME280;63722;48.858;21.906;2022-11-20T04:23:32;98214.84;;;19.87;46.22
57574;BME280;63722;48.858;21.906;2022-11-20T04:26:15;98215.66;;;19.92;46.31
57574;BME280;63722;48.858;21.906;2022-11-20T04:28:41;98206.88;;;19.92;46.21
57574;BME280;63722;48.858;21.906;2022-11-20T04:31:11;98214.88;;;19.92;46.31
57574;BME280;63722;48.858;21.906;2022-11-20T04:33:37;98215.66;;;19.92;46.39
57574;BME280;63722;48.858;21.906;2022-11-20T04:36:11;98202.38;;;19.92;46.19
57574;BME280;63722;48.858;21.906;2022-11-20T04:38:37;98192.47;;;19.88;46.16
57574;BME280;63722;48.858;21.906;2022-11-20T04:41:05;98200.53;;;19.93;46.30
57574;BME280;63722;48.858;21.906;2022-11-20T04:43:31;98200.53;;;19.93;46.20
57574;BME280;63722;48.858;21.906;2022-11-20T04:45:57;98194.09;;;19.89;46.19
57574;BME280;63722;48.858;21.906;2022-11-20T04:48:24;98189.56;;;19.89;46.32
57574;BME280;63722;48.858;21.906;2022-11-20T04:50:50;98185.06;;;19.90;46.40
57574;BME280;63722;48.858;21.906;2022-11-20T04:53:16;98182.41;;;19.90;46.31
57574;BME280;63722;48.858;21.906;2022-11-20T04:55:41;98192.47;;;19.88;46.18
57574;BME280;63722;48.858;21.906;2022-11-20T04:58:07;98187.97;;;19.88;46.25
57574;BME280;63722;48.858;21.906;2022-11-20T05:00:32;98183.94;;;19.85;46.16
57574;BME280;63722;48.858;21.906;2022-11-20T05:02:57;98180.53;;;19.90;46.24
57574;BME280;63722;48.858;21.906;2022-11-20T05:05:23;98186.09;;;19.89;46.06
57574;BME280;63722;48.858;21.906;2022-11-20T05:07:48;98180.25;;;19.87;46.13
57574;BME280;63722;48.858;21.906;2022-11-20T05:10:14;98180.78;;;19.89;46.18
57574;BME280;63722;48.858;21.906;2022-11-20T05:12:39;98180.78;;;19.89;46.10
57574;BME280;63722;48.858;21.906;2022-11-20T05:15:05;98179.16;;;19.88;46.17
57574;BME280;63722;48.858;21.906;2022-11-20T05:17:30;98170.63;;;19.85;46.26
57574;BME280;63722;48.858;21.906;2022-11-20T05:19:55;98169.84;;;19.85;46.16
57574;BME280;63722;48.858;21.906;2022-11-20T05:22:21;98180.53;;;19.90;46.26
57574;BME280;63722;48.858;21.906;2022-11-20T05:24:46;98170.19;;;19.94;46.05
57574;BME280;63722;48.858;21.906;2022-11-20T05:27:11;98163.78;;;19.90;46.15
57574;BME280;63722;48.858;21.906;2022-11-20T05:29:37;98167.22;;;19.90;45.79
57574;BME280;63722;48.858;21.906;2022-11-20T05:32:02;98167.47;;;19.89;46.06
57574;BME280;63722;48.858;21.906;2022-11-20T05:34:28;98162.94;;;19.89;46.10
57574;BME280;63722;48.858;21.906;2022-11-20T05:36:53;98170.69;;;19.91;46.10
57574;BME280;63722;48.858;21.906;2022-11-20T05:39:18;98162.16;;;19.89;46.12
57574;BME280;63722;48.858;21.906;2022-11-20T05:41:44;98154.16;;;19.89;46.19
57574;BME280;63722;48.858;21.906;2022-11-20T05:44:10;98146.69;;;19.85;46.33
57574;BME280;63722;48.858;21.906;2022-11-20T05:46:35;98152.31;;;19.89;46.06
57574;BME280;63722;48.858;21.906;2022-11-20T05:49:01;98143.28;;;19.90;46.18
57574;BME280;63722;48.858;21.906;2022-11-20T05:51:26;98137.09;;;19.84;46.13
57574;BME280;63722;48.858;21.906;2022-11-20T05:53:52;98150.72;;;19.88;46.00
57574;BME280;63722;48.858;21.906;2022-11-20T05:56:19;98151.00;;;19.92;46.02
57574;BME280;63722;48.858;21.906;2022-11-20T05:58:45;98138.75;;;19.91;45.95
57574;BME280;63722;48.858;21.906;2022-11-20T06:01:13;98142.16;;;19.86;46.19
57574;BME280;63722;48.858;21.906;2022-11-20T06:03:39;98127.03;;;19.87;46.07
57574;BME280;63722;48.858;21.906;2022-11-20T06:06:06;98123.53;;;19.86;45.99
57574;BME280;63722;48.858;21.906;2022-11-20T06:08:32;98124.13;;;19.88;46.26
57574;BME280;63722;48.858;21.906;2022-11-20T06:10:57;98131.84;;;19.90;45.93
57574;BME280;63722;48.858;21.906;2022-11-20T06:13:23;98145.69;;;19.92;46.09
57574;BME280;63722;48.858;21.906;2022-11-20T06:15:53;98149.41;;;19.91;45.90
57574;BME280;63722;48.858;21.906;2022-11-20T06:18:18;98148.34;;;19.92;46.11
57574;BME280;63722;48.858;21.906;2022-11-20T06:20:45;98157.94;;;19.93;46.09
57574;BME280;63722;48.858;21.906;2022-11-20T06:23:10;98141.97;;;19.93;45.91
57574;BME280;63722;48.858;21.906;2022-11-20T06:25:42;98139.81;;;19.90;45.99
57574;BME280;63722;48.858;21.906;2022-11-20T06:28:08;98128.09;;;19.91;46.10
57574;BME280;63722;48.858;21.906;2022-11-20T06:30:34;98145.97;;;19.95;45.89
57574;BME280;63722;48.858;21.906;2022-11-20T06:33:00;98152.06;;;19.91;46.04
57574;BME280;63722;48.858;21.906;2022-11-20T06:35:25;98153.16;;;19.95;45.85
57574;BME280;63722;48.858;21.906;2022-11-20T06:37:51;98156.38;;;19.97;45.80
57574;BME280;63722;48.858;21.906;2022-11-20T06:40:16;98164.34;;;19.97;45.81
57574;BME280;63722;48.858;21.906;2022-11-20T06:42:41;98172.34;;;19.97;45.84
57574;BME280;63722;48.858;21.906;2022-11-20T06:45:07;98163.56;;;19.96;45.93
57574;BME280;63722;48.858;21.906;2022-11-20T06:47:33;98153.16;;;19.95;45.54
57574;BME280;63722;48.858;21.906;2022-11-20T06:49:58;98133.19;;;19.92;45.90
57574;BME280;63722;48.858;21.906;2022-11-20T06:52:24;98133.44;;;19.91;46.08
57574;BME280;63722;48.858;21.906;2022-11-20T06:54:49;98117.72;;;19.89;45.87
57574;BME280;63722;48.858;21.906;2022-11-20T06:57:14;98136.66;;;19.93;45.77
57574;BME280;63722;48.858;21.906;2022-11-20T06:59:40;98139.34;;;19.98;45.78
57574;BME280;63722;48.858;21.906;2022-11-20T07:02:05;98135.91;;;19.97;45.92
57574;BME280;63722;48.858;21.906;2022-11-20T07:04:31;98136.94;;;19.96;45.81
57574;BME280;63722;48.858;21.906;2022-11-20T07:06:56;98118.56;;;19.95;45.71
57574;BME280;63722;48.858;21.906;2022-11-20T07:09:21;98119.94;;;19.97;46.33
57574;BME280;63722;48.858;21.906;2022-11-20T07:11:47;98119.38;;;19.95;45.83
57574;BME280;63722;48.858;21.906;2022-11-20T07:14:12;98130.00;;;19.95;45.87
57574;BME280;63722;48.858;21.906;2022-11-20T07:16:37;98121.78;;;19.97;45.82
57574;BME280;63722;48.858;21.906;2022-11-20T07:19:03;98143.88;;;19.97;45.92
57574;BME280;63722;48.858;21.906;2022-11-20T07:21:28;98128.72;;;19.98;45.61
57574;BME280;63722;48.858;21.906;2022-11-20T07:23:53;98146.88;;;20.06;45.56
57574;BME280;63722;48.858;21.906;2022-11-20T07:26:19;98142.06;;;20.03;45.58
57574;BME280;63722;48.858;21.906;2022-11-20T07:28:45;98147.88;;;20.00;45.51
57574;BME280;63722;48.858;21.906;2022-11-20T07:31:10;98149.53;;;20.06;45.54
57574;BME280;63722;48.858;21.906;2022-11-20T07:33:37;98145.81;;;20.07;45.47
57574;BME280;63722;48.858;21.906;2022-11-20T07:36:02;98147.19;;;20.10;45.56
57574;BME280;63722;48.858;21.906;2022-11-20T07:38:28;98151.19;;;20.12;45.23
57574;BME280;63722;48.858;21.906;2022-11-20T07:40:54;98140.53;;;20.12;45.57
57574;BME280;63722;48.858;21.906;2022-11-20T07:43:20;98156.50;;;20.12;45.45
57574;BME280;63722;48.858;21.906;2022-11-20T07:45:46;98134.13;;;20.08;45.55
57574;BME280;63722;48.858;21.906;2022-11-20T07:48:11;98124.56;;;20.12;45.67
57574;BME280;63722;48.858;21.906;2022-11-20T07:50:36;98122.97;;;20.11;45.55
57574;BME280;63722;48.858;21.906;2022-11-20T07:53:05;98124.03;;;20.10;45.44
57574;BME280;63722;48.858;21.906;2022-11-20T07:55:31;98132.53;;;20.07;45.62
57574;BME280;63722;48.858;21.906;2022-11-20T07:57:57;98131.97;;;20.05;45.52
57574;BME280;63722;48.858;21.906;2022-11-20T08:00:23;98107.50;;;20.08;45.61
57574;BME280;63722;48.858;21.906;2022-11-20T08:02:49;98101.38;;;20.08;45.65
57574;BME280;63722;48.858;21.906;2022-11-20T08:05:14;98110.72;;;20.10;45.38
57574;BME280;63722;48.858;21.906;2022-11-20T08:07:42;98101.38;;;20.08;45.51
57574;BME280;63722;48.858;21.906;2022-11-20T08:10:09;98118.16;;;20.08;45.53
57574;BME280;63722;48.858;21.906;2022-11-20T08:12:35;98122.97;;;20.11;45.49
57574;BME280;63722;48.858;21.906;2022-11-20T08:15:19;98113.13;;;20.12;45.28
57574;BME280;63722;48.858;21.906;2022-11-20T08:17:44;98117.09;;;20.09;45.59
57574;BME280;63722;48.858;21.906;2022-11-20T08:20:10;98124.56;;;20.12;45.37
57574;BME280;63722;48.858;21.906;2022-11-20T08:22:35;98129.88;;;20.12;45.55
57574;BME280;63722;48.858;21.906;2022-11-20T08:25:00;98146.19;;;20.16;45.10
57574;BME280;63722;48.858;21.906;2022-11-20T08:27:26;98146.94;;;20.11;45.52
57574;BME280;63722;48.858;21.906;2022-11-20T08:29:52;98145.84;;;20.12;45.30
57574;BME280;63722;48.858;21.906;2022-11-20T08:32:17;98139.22;;;20.15;45.43
57574;BME280;63722;48.858;21.906;2022-11-20T08:34:42;98129.38;;;20.15;45.32
57574;BME280;63722;48.858;21.906;2022-11-20T08:37:08;98143.75;;;20.14;45.24
57574;BME280;63722;48.858;21.906;2022-11-20T08:39:33;98134.16;;;20.13;45.44
57574;BME280;63722;48.858;21.906;2022-11-20T08:41:59;98132.28;;;20.14;45.30
57574;BME280;63722;48.858;21.906;2022-11-20T08:44:24;98140.00;;;20.10;45.34
57574;BME280;63722;48.858;21.906;2022-11-20T08:46:50;98129.88;;;20.12;45.58
57574;BME280;63722;48.858;21.906;2022-11-20T08:49:15;98118.97;;;20.09;45.39
57574;BME280;63722;48.858;21.906;2022-11-20T08:51:41;98116.31;;;20.14;45.02
57574;BME280;63722;48.858;21.906;2022-11-20T08:54:07;98107.81;;;20.12;45.42
57574;BME280;63722;48.858;21.906;2022-11-20T08:56:33;98119.25;;;20.12;45.72
57574;BME280;63722;48.858;21.906;2022-11-20T08:58:58;98122.47;;;20.14;45.37
57574;BME280;63722;48.858;21.906;2022-11-20T09:01:27;98114.75;;;20.13;45.29
57574;BME280;63722;48.858;21.906;2022-11-20T09:03:55;98106.44;;;20.09;45.46
57574;BME280;63722;48.858;21.906;2022-11-20T09:06:20;98119.25;;;20.12;45.71
57574;BME280;63722;48.858;21.906;2022-11-20T09:08:46;98092.06;;;20.05;45.35
57574;BME280;63722;48.858;21.906;2022-11-20T09:11:11;98101.69;;;20.11;45.42
57574;BME280;63722;48.858;21.906;2022-11-20T09:13:37;98112.59;;;20.10;45.37
57574;BME280;63722;48.858;21.906;2022-11-20T09:16:05;98117.66;;;20.11;45.12
57574;BME280;63722;48.858;21.906;2022-11-20T09:18:32;98133.63;;;20.11;45.37
57574;BME280;63722;48.858;21.906;2022-11-20T09:20:59;98129.88;;;20.12;45.37
57574;BME280;63722;48.858;21.906;2022-11-20T09:23:25;98143.75;;;20.14;45.46
57574;BME280;63722;48.858;21.906;2022-11-20T09:25:51;98159.41;;;20.11;45.38
57574;BME280;63722;48.858;21.906;2022-11-20T09:28:17;98155.97;;;20.10;45.43
57574;BME280;63722;48.858;21.906;2022-11-20T09:30:43;98150.66;;;20.10;45.26
57574;BME280;63722;48.858;21.906;2022-11-20T09:33:09;98151.19;;;20.12;45.38
57574;BME280;63722;48.858;21.906;2022-11-20T09:35:34;98147.97;;;20.10;45.25
57574;BME280;63722;48.858;21.906;2022-11-20T09:38:04;98131.22;;;20.10;45.29
57574;BME280;63722;48.858;21.906;2022-11-20T09:40:30;98124.06;;;20.15;45.34
57574;BME280;63722;48.858;21.906;2022-11-20T09:43:10;98113.13;;;20.12;45.30
57574;BME280;63722;48.858;21.906;2022-11-20T09:45:59;98111.00;;;20.14;45.16
57574;BME280;63722;48.858;21.906;2022-11-20T09:48:55;98112.06;;;20.13;45.24
57574;BME280;63722;48.858;21.906;2022-11-20T09:56:27;98113.41;;;20.15;45.22
57574;BME280;63722;48.858;21.906;2022-11-20T09:58:55;98120.34;;;20.16;45.11
57574;BME280;63722;48.858;21.906;2022-11-20T10:01:29;98104.88;;;20.13;45.17
57574;BME280;63722;48.858;21.906;2022-11-20T10:04:02;98088.41;;;20.16;45.22
57574;BME280;63722;48.858;21.906;2022-11-20T10:12:18;98112.34;;;20.16;45.19
57574;BME280;63722;48.858;21.906;2022-11-20T10:23:57;98081.72;;;20.14;45.14
57574;BME280;63722;48.858;21.906;2022-11-20T10:29:13;98044.47;;;20.14;45.11
57574;BME280;63722;48.858;21.906;2022-11-20T10:31:43;98052.44;;;20.14;45.17
57574;BME280;63722;48.858;21.906;2022-11-20T10:36:54;98046.34;;;20.18;44.90
57574;BME280;63722;48.858;21.906;2022-11-20T10:39:22;98046.34;;;20.18;45.19
57574;BME280;63722;48.858;21.906;2022-11-20T10:41:52;98052.25;;;20.20;44.91
57574;BME280;63722;48.858;21.906;2022-11-20T10:44:26;98043.94;;;20.17;45.25
57574;BME280;63722;48.858;21.906;2022-11-20T10:47:31;98041.03;;;20.18;44.97
57574;BME280;63722;48.858;21.906;2022-11-20T10:50:01;98049.00;;;20.18;45.14
57574;BME280;63722;48.858;21.906;2022-11-20T10:52:41;98039.19;;;20.19;44.96
57574;BME280;63722;48.858;21.906;2022-11-20T10:55:28;98041.59;;;20.20;45.13
57574;BME280;63722;48.858;21.906;2022-11-20T10:58:26;98043.69;;;20.18;45.00
57574;BME280;63722;48.858;21.906;2022-11-20T11:01:05;98036.25;;;20.20;44.98
57574;BME280;63722;48.858;21.906;2022-11-20T11:03:31;98030.94;;;20.20;45.04
57574;BME280;63722;48.858;21.906;2022-11-20T11:06:36;98027.75;;;20.24;44.87
57574;BME280;63722;48.858;21.906;2022-11-20T11:09:13;98019.78;;;20.24;45.03
57574;BME280;63722;48.858;21.906;2022-11-20T11:11:40;98017.91;;;20.24;44.83
57574;BME280;63722;48.858;21.906;2022-11-20T11:14:14;98017.13;;;20.24;44.79
57574;BME280;63722;48.858;21.906;2022-11-20T11:19:17;98022.44;;;20.24;44.70
57574;BME280;63722;48.858;21.906;2022-11-20T11:21:47;98010.44;;;20.21;45.12
57574;BME280;63722;48.858;21.906;2022-11-20T11:24:27;97985.13;;;20.18;44.88
57574;BME280;63722;48.858;21.906;2022-11-20T11:29:18;98004.59;;;20.24;44.98
57574;BME280;63722;48.858;21.906;2022-11-20T11:31:44;98013.69;;;20.28;44.80
57574;BME280;63722;48.858;21.906;2022-11-20T11:34:14;98016.59;;;20.27;44.90
57574;BME280;63722;48.858;21.906;2022-11-20T11:36:41;98018.69;;;20.25;44.98
57574;BME280;63722;48.858;21.906;2022-11-20T11:39:18;98031.22;;;20.24;45.01
57574;BME280;63722;48.858;21.906;2022-11-20T11:41:45;98038.44;;;20.29;44.70
57574;BME280;63722;48.858;21.906;2022-11-20T11:44:33;98023.00;;;20.31;44.65
57574;BME280;63722;48.858;21.906;2022-11-20T11:47:22;98021.41;;;20.30;44.71
57574;BME280;63722;48.858;21.906;2022-11-20T11:49:48;98024.06;;;20.30;44.87
57574;BME280;63722;48.858;21.906;2022-11-20T11:52:24;98008.88;;;20.25;44.86
57574;BME280;63722;48.858;21.906;2022-11-20T11:55:01;97994.22;;;20.28;44.87
57574;BME280;63722;48.858;21.906;2022-11-20T11:57:57;97990.50;;;20.29;45.27
57574;BME280;63722;48.858;21.906;2022-11-20T12:00:27;97992.13;;;20.30;44.74
57574;BME280;63722;48.858;21.906;2022-11-20T12:03:02;97996.38;;;20.31;44.69
57574;BME280;63722;48.858;21.906;2022-11-20T12:05:34;97999.84;;;20.31;44.69
57574;BME280;63722;48.858;21.906;2022-11-20T12:16:27;97998.50;;;20.29;44.80
57574;BME280;63722;48.858;21.906;2022-11-20T12:18:53;97989.41;;;20.25;44.69
57574;BME280;63722;48.858;21.906;2022-11-20T12:21:25;97989.47;;;20.30;44.73
57574;BME280;63722;48.858;21.906;2022-11-20T12:26:58;97981.47;;;20.30;44.72
57574;BME280;63722;48.858;21.906;2022-11-20T12:53:27;97951.34;;;20.24;44.64
57574;BME280;63722;48.858;21.906;2022-11-20T13:01:51;97935.38;;;20.19;44.84
57574;BME280;63722;48.858;21.906;2022-11-20T13:04:39;97934.28;;;20.20;45.05
57574;BME280;63722;48.858;21.906;2022-11-20T13:07:12;97933.50;;;20.19;44.71
57574;BME280;63722;48.858;21.906;2022-11-20T13:09:49;97934.28;;;20.20;44.72
57574;BME280;63722;48.858;21.906;2022-11-20T13:12:36;97932.72;;;20.24;44.88
57574;BME280;63722;48.858;21.906;2022-11-20T13:17:56;97953.19;;;20.18;45.06
57574;BME280;63722;48.858;21.906;2022-11-20T13:20:23;97952.09;;;20.14;44.83
57574;BME280;63722;48.858;21.906;2022-11-20T13:22:51;97951.59;;;20.17;44.85
57574;BME280;63722;48.858;21.906;2022-11-20T13:25:30;97952.91;;;20.20;44.84
57574;BME280;63722;48.858;21.906;2022-11-20T13:27:58;97952.38;;;20.18;44.85
57574;BME280;63722;48.858;21.906;2022-11-20T13:30:29;97957.19;;;20.16;45.05
57574;BME280;63722;48.858;21.906;2022-11-20T13:32:57;97957.44;;;20.14;44.89
57574;BME280;63722;48.858;21.906;2022-11-20T13:35:29;97972.06;;;20.17;45.05
57574;BME280;63722;48.858;21.906;2022-11-20T13:38:14;97989.31;;;20.09;45.21
57574;BME280;63722;48.858;21.906;2022-11-20T13:41:01;97992.84;;;20.15;45.19
57574;BME280;63722;48.858;21.906;2022-11-20T13:43:49;97992.28;;;20.13;45.08
57574;BME280;63722;48.858;21.906;2022-11-20T13:46:15;97986.91;;;20.02;45.20
57574;BME280;63722;48.858;21.906;2022-11-20T13:48:42;97997.88;;;20.11;45.05
57574;BME280;63722;48.858;21.906;2022-11-20T13:56:52;97987.47;;;20.10;45.27
57574;BME280;63722;48.858;21.906;2022-11-20T14:02:03;97974.69;;;20.07;45.08
57574;BME280;63722;48.858;21.906;2022-11-20T14:04:36;97970.16;;;20.07;45.26
57574;BME280;63722;48.858;21.906;2022-11-20T14:07:05;97971.47;;;20.04;45.22
57574;BME280;63722;48.858;21.906;2022-11-20T14:09:32;97968.81;;;20.04;45.19
57574;BME280;63722;48.858;21.906;2022-11-20T14:11:58;97957.38;;;20.04;45.25
57574;BME280;63722;48.858;21.906;2022-11-20T14:14:26;97953.34;;;20.01;45.22
57574;BME280;63722;48.858;21.906;2022-11-20T14:17:03;97964.81;;;20.02;45.30
57574;BME280;63722;48.858;21.906;2022-11-20T14:19:30;97968.28;;;20.02;45.29
57574;BME280;63722;48.858;21.906;2022-11-20T14:22:19;97979.16;;;20.01;45.20